首页
METAR-TAF:

METAR-TAF

机场 :

庫內奧, 意大利

纬度: 44-32-47N, 经度: 007-37-20E, 海拔: 386米

当前天气观测

该预报发布于33分钟前的09:20 UTC
风速4节,风向北转东北,在之间变化
温度 22°C
湿度 78%
气压 1006 hPa
能见度10公里或以上

METAR: LIMZ 010920Z AUTO 02004KT 350V080 9999 SCT022/// BKN033/// 22/18 Q1006

时间: 11:53 (09:53 UTC)

预报

该预报发布于4小时和53分钟前的05:00 UTC
预报有效从01日的 06点(UTC)到 02日的 06点(UTC)
风速5节,风向多变
能见度10公里或以上
散云层高于3000英尺
几率 40% :
短暂存在
从 01日的 06点(UTC)到 01日的 08点(UTC)
雷暴, 雨
短暂存在
从 01日的 15点(UTC)到 01日的 18点(UTC)
雷暴, 雨

TAF: LIMZ 010500Z 0106/0206 VRB05KT 9999 SCT030 PROB40 TEMPO 0106/0108 TSRA TEMPO 0115/0118 TSRA

超过4000个机场的气象观测和天气预报(METAR&TAF报告)。

可查询的气象台以黄色和红色小点在地图上表示。

将鼠标移到小点上方,可查看气象台名称。

然后点击查看天气观测和预报。

如需切换地图:点击带黑十字的绿色按钮放大地图;点击带横线的绿色按钮缩小地图;或者点击绿色箭头查看邻近地区的地图。


METAR-TAF: